sensor_id;sensor_type;location;lat;lon;timestamp;P1;durP1;ratioP1;P2;durP2;ratioP2
48124;SDS011;33908;47.436;18.918;2022-12-07T00:18:20;6.70;;;1.33;;
48124;SDS011;33908;47.436;18.918;2022-12-07T00:20:48;3.60;;;1.70;;
48124;SDS011;33908;47.436;18.918;2022-12-07T00:23:17;2.12;;;2.03;;
48124;SDS011;33908;47.436;18.918;2022-12-07T00:25:45;1.30;;;1.25;;
48124;SDS011;33908;47.436;18.918;2022-12-07T00:28:13;0.52;;;0.52;;
48124;SDS011;33908;47.436;18.918;2022-12-07T00:30:41;1.05;;;1.02;;
48124;SDS011;33908;47.436;18.918;2022-12-07T00:33:10;2.75;;;1.75;;
48124;SDS011;33908;47.436;18.918;2022-12-07T00:35:38;4.25;;;2.80;;
48124;SDS011;33908;47.436;18.918;2022-12-07T00:38:06;6.93;;;2.47;;
48124;SDS011;33908;47.436;18.918;2022-12-07T00:40:34;2.80;;;1.25;;
48124;SDS011;33908;47.436;18.918;2022-12-07T00:43:02;2.40;;;1.67;;
48124;SDS011;33908;47.436;18.918;2022-12-07T00:45:30;1.05;;;0.65;;
48124;SDS011;33908;47.436;18.918;2022-12-07T00:47:58;0.88;;;0.85;;
48124;SDS011;33908;47.436;18.918;2022-12-07T00:50:26;2.30;;;2.20;;
48124;SDS011;33908;47.436;18.918;2022-12-07T00:52:54;1.48;;;1.35;;
48124;SDS011;33908;47.436;18.918;2022-12-07T00:55:22;1.25;;;1.25;;
48124;SDS011;33908;47.436;18.918;2022-12-07T00:57:51;8.07;;;2.45;;
48124;SDS011;33908;47.436;18.918;2022-12-07T01:00:18;0.05;;;0.05;;
48124;SDS011;33908;47.436;18.918;2022-12-07T01:02:48;1.20;;;1.10;;
48124;SDS011;33908;47.436;18.918;2022-12-07T01:05:16;0.00;;;0.00;;
48124;SDS011;33908;47.436;18.918;2022-12-07T01:07:43;0.28;;;0.28;;
48124;SDS011;33908;47.436;18.918;2022-12-07T01:10:12;2.30;;;2.20;;
48124;SDS011;33908;47.436;18.918;2022-12-07T01:12:40;0.62;;;0.62;;
48124;SDS011;33908;47.436;18.918;2022-12-07T01:15:08;0.13;;;0.13;;
48124;SDS011;33908;47.436;18.918;2022-12-07T01:17:37;2.47;;;2.28;;
48124;SDS011;33908;47.436;18.918;2022-12-07T01:20:05;0.15;;;0.15;;
48124;SDS011;33908;47.436;18.918;2022-12-07T01:22:37;0.57;;;0.57;;
48124;SDS011;33908;47.436;18.918;2022-12-07T01:25:06;2.00;;;1.87;;
48124;SDS011;33908;47.436;18.918;2022-12-07T01:27:35;1.80;;;1.02;;
48124;SDS011;33908;47.436;18.918;2022-12-07T01:30:04;1.25;;;1.20;;
48124;SDS011;33908;47.436;18.918;2022-12-07T01:32:34;4.00;;;1.40;;
48124;SDS011;33908;47.436;18.918;2022-12-07T01:35:02;1.00;;;1.00;;
48124;SDS011;33908;47.436;18.918;2022-12-07T01:37:33;3.45;;;1.90;;
48124;SDS011;33908;47.436;18.918;2022-12-07T01:40:05;2.60;;;2.45;;
48124;SDS011;33908;47.436;18.918;2022-12-07T01:42:34;3.15;;;2.80;;
48124;SDS011;33908;47.436;18.918;2022-12-07T01:48:04;1.05;;;1.02;;
48124;SDS011;33908;47.436;18.918;2022-12-07T01:50:34;0.30;;;0.30;;
48124;SDS011;33908;47.436;18.918;2022-12-07T01:53:03;1.25;;;1.25;;
48124;SDS011;33908;47.436;18.918;2022-12-07T01:55:34;0.00;;;0.00;;
48124;SDS011;33908;47.436;18.918;2022-12-07T01:58:02;1.52;;;1.42;;
48124;SDS011;33908;47.436;18.918;2022-12-07T02:00:30;0.43;;;0.43;;
48124;SDS011;33908;47.436;18.918;2022-12-07T02:03:13;0.10;;;0.10;;
48124;SDS011;33908;47.436;18.918;2022-12-07T02:05:44;2.80;;;1.45;;
48124;SDS011;33908;47.436;18.918;2022-12-07T02:08:12;0.77;;;0.77;;
48124;SDS011;33908;47.436;18.918;2022-12-07T02:10:41;1.25;;;1.17;;
48124;SDS011;33908;47.436;18.918;2022-12-07T02:13:21;1.17;;;1.02;;
48124;SDS011;33908;47.436;18.918;2022-12-07T02:29:14;0.95;;;0.95;;
48124;SDS011;33908;47.436;18.918;2022-12-07T02:35:02;0.10;;;0.10;;
48124;SDS011;33908;47.436;18.918;2022-12-07T02:40:31;0.45;;;0.45;;
48124;SDS011;33908;47.436;18.918;2022-12-07T02:43:04;0.95;;;0.95;;
48124;SDS011;33908;47.436;18.918;2022-12-07T02:45:36;0.20;;;0.20;;
48124;SDS011;33908;47.436;18.918;2022-12-07T02:48:08;0.20;;;0.20;;
48124;SDS011;33908;47.436;18.918;2022-12-07T02:50:37;2.35;;;0.77;;
48124;SDS011;33908;47.436;18.918;2022-12-07T02:53:05;5.05;;;1.58;;
48124;SDS011;33908;47.436;18.918;2022-12-07T02:55:38;0.30;;;0.30;;
48124;SDS011;33908;47.436;18.918;2022-12-07T02:58:17;0.85;;;0.57;;
48124;SDS011;33908;47.436;18.918;2022-12-07T03:01:03;5.78;;;0.55;;
48124;SDS011;33908;47.436;18.918;2022-12-07T03:03:36;1.85;;;1.23;;
48124;SDS011;33908;47.436;18.918;2022-12-07T03:11:25;1.42;;;1.33;;
48124;SDS011;33908;47.436;18.918;2022-12-07T03:14:08;1.17;;;1.17;;
48124;SDS011;33908;47.436;18.918;2022-12-07T03:16:44;0.50;;;0.50;;
48124;SDS011;33908;47.436;18.918;2022-12-07T03:19:16;0.20;;;0.20;;
48124;SDS011;33908;47.436;18.918;2022-12-07T03:21:51;1.55;;;0.43;;
48124;SDS011;33908;47.436;18.918;2022-12-07T03:24:24;0.65;;;0.65;;
48124;SDS011;33908;47.436;18.918;2022-12-07T03:27:06;0.75;;;0.75;;
48124;SDS011;33908;47.436;18.918;2022-12-07T03:29:38;0.35;;;0.35;;
48124;SDS011;33908;47.436;18.918;2022-12-07T03:32:19;3.40;;;1.35;;
48124;SDS011;33908;47.436;18.918;2022-12-07T03:37:37;1.30;;;1.20;;
48124;SDS011;33908;47.436;18.918;2022-12-07T03:40:17;0.20;;;0.20;;
48124;SDS011;33908;47.436;18.918;2022-12-07T03:42:50;1.80;;;1.70;;
48124;SDS011;33908;47.436;18.918;2022-12-07T03:45:19;0.68;;;0.68;;
48124;SDS011;33908;47.436;18.918;2022-12-07T03:48:02;1.20;;;1.10;;
48124;SDS011;33908;47.436;18.918;2022-12-07T03:50:36;0.47;;;0.47;;
48124;SDS011;33908;47.436;18.918;2022-12-07T03:53:11;0.50;;;0.50;;
48124;SDS011;33908;47.436;18.918;2022-12-07T03:58:17;0.95;;;0.95;;
48124;SDS011;33908;47.436;18.918;2022-12-07T04:00:46;0.80;;;0.75;;
48124;SDS011;33908;47.436;18.918;2022-12-07T04:03:15;1.10;;;1.00;;
48124;SDS011;33908;47.436;18.918;2022-12-07T04:05:43;4.25;;;0.70;;
48124;SDS011;33908;47.436;18.918;2022-12-07T04:08:12;1.08;;;0.50;;
48124;SDS011;33908;47.436;18.918;2022-12-07T04:10:40;0.05;;;0.05;;
48124;SDS011;33908;47.436;18.918;2022-12-07T04:13:07;2.50;;;1.00;;
48124;SDS011;33908;47.436;18.918;2022-12-07T04:15:35;0.98;;;0.90;;
48124;SDS011;33908;47.436;18.918;2022-12-07T04:18:03;0.13;;;0.13;;
48124;SDS011;33908;47.436;18.918;2022-12-07T04:20:31;1.00;;;0.47;;
48124;SDS011;33908;47.436;18.918;2022-12-07T04:23:02;0.80;;;0.80;;
48124;SDS011;33908;47.436;18.918;2022-12-07T04:25:30;0.35;;;0.35;;
48124;SDS011;33908;47.436;18.918;2022-12-07T04:27:58;0.00;;;0.00;;
48124;SDS011;33908;47.436;18.918;2022-12-07T04:30:26;0.13;;;0.13;;
48124;SDS011;33908;47.436;18.918;2022-12-07T04:32:57;1.45;;;1.10;;
48124;SDS011;33908;47.436;18.918;2022-12-07T04:35:24;0.43;;;0.43;;
48124;SDS011;33908;47.436;18.918;2022-12-07T04:37:52;1.92;;;1.02;;
48124;SDS011;33908;47.436;18.918;2022-12-07T04:40:20;1.17;;;0.75;;
48124;SDS011;33908;47.436;18.918;2022-12-07T04:42:47;0.00;;;0.00;;
48124;SDS011;33908;47.436;18.918;2022-12-07T04:45:35;1.70;;;1.33;;
48124;SDS011;33908;47.436;18.918;2022-12-07T04:48:23;1.08;;;0.75;;
48124;SDS011;33908;47.436;18.918;2022-12-07T04:51:09;0.85;;;0.85;;
48124;SDS011;33908;47.436;18.918;2022-12-07T04:53:57;0.08;;;0.08;;
48124;SDS011;33908;47.436;18.918;2022-12-07T04:56:25;0.10;;;0.10;;
48124;SDS011;33908;47.436;18.918;2022-12-07T04:58:54;0.93;;;0.93;;
48124;SDS011;33908;47.436;18.918;2022-12-07T05:01:22;0.60;;;0.60;;
48124;SDS011;33908;47.436;18.918;2022-12-07T05:03:51;0.08;;;0.08;;
48124;SDS011;33908;47.436;18.918;2022-12-07T05:06:19;0.15;;;0.15;;
48124;SDS011;33908;47.436;18.918;2022-12-07T05:08:47;1.27;;;1.20;;
48124;SDS011;33908;47.436;18.918;2022-12-07T05:11:15;2.17;;;1.17;;
48124;SDS011;33908;47.436;18.918;2022-12-07T05:14:03;0.80;;;0.47;;
48124;SDS011;33908;47.436;18.918;2022-12-07T05:16:43;0.30;;;0.30;;
48124;SDS011;33908;47.436;18.918;2022-12-07T05:19:13;1.02;;;1.02;;
48124;SDS011;33908;47.436;18.918;2022-12-07T05:21:42;1.33;;;1.27;;
48124;SDS011;33908;47.436;18.918;2022-12-07T05:24:11;0.62;;;0.62;;
48124;SDS011;33908;47.436;18.918;2022-12-07T05:26:43;0.45;;;0.45;;
48124;SDS011;33908;47.436;18.918;2022-12-07T05:29:12;2.47;;;1.12;;
48124;SDS011;33908;47.436;18.918;2022-12-07T05:31:42;0.77;;;0.77;;
48124;SDS011;33908;47.436;18.918;2022-12-07T05:34:16;0.25;;;0.25;;
48124;SDS011;33908;47.436;18.918;2022-12-07T05:36:45;0.00;;;0.00;;
48124;SDS011;33908;47.436;18.918;2022-12-07T05:39:15;0.47;;;0.47;;
48124;SDS011;33908;47.436;18.918;2022-12-07T05:41:46;0.30;;;0.30;;
48124;SDS011;33908;47.436;18.918;2022-12-07T05:44:38;0.03;;;0.03;;
48124;SDS011;33908;47.436;18.918;2022-12-07T05:47:08;0.22;;;0.22;;
48124;SDS011;33908;47.436;18.918;2022-12-07T05:49:37;0.52;;;0.52;;
48124;SDS011;33908;47.436;18.918;2022-12-07T05:52:07;0.40;;;0.40;;
48124;SDS011;33908;47.436;18.918;2022-12-07T05:54:37;2.08;;;1.10;;
48124;SDS011;33908;47.436;18.918;2022-12-07T05:57:05;1.95;;;1.77;;
48124;SDS011;33908;47.436;18.918;2022-12-07T05:59:34;0.88;;;0.73;;
48124;SDS011;33908;47.436;18.918;2022-12-07T06:04:35;2.17;;;0.98;;
48124;SDS011;33908;47.436;18.918;2022-12-07T06:07:05;1.75;;;1.65;;
48124;SDS011;33908;47.436;18.918;2022-12-07T06:09:34;1.40;;;1.30;;
48124;SDS011;33908;47.436;18.918;2022-12-07T06:12:04;2.42;;;0.90;;
48124;SDS011;33908;47.436;18.918;2022-12-07T06:15:14;0.22;;;0.22;;
48124;SDS011;33908;47.436;18.918;2022-12-07T06:17:48;1.05;;;1.05;;
48124;SDS011;33908;47.436;18.918;2022-12-07T06:20:16;0.52;;;0.52;;
48124;SDS011;33908;47.436;18.918;2022-12-07T06:22:44;0.25;;;0.25;;
48124;SDS011;33908;47.436;18.918;2022-12-07T06:25:14;1.55;;;1.45;;
48124;SDS011;33908;47.436;18.918;2022-12-07T06:27:47;0.37;;;0.37;;
48124;SDS011;33908;47.436;18.918;2022-12-07T06:30:16;0.35;;;0.35;;
48124;SDS011;33908;47.436;18.918;2022-12-07T06:32:45;0.35;;;0.35;;
48124;SDS011;33908;47.436;18.918;2022-12-07T06:35:13;0.95;;;0.95;;
48124;SDS011;33908;47.436;18.918;2022-12-07T06:37:46;0.60;;;0.60;;
48124;SDS011;33908;47.436;18.918;2022-12-07T06:40:15;1.00;;;0.90;;
48124;SDS011;33908;47.436;18.918;2022-12-07T06:42:44;1.37;;;1.27;;
48124;SDS011;33908;47.436;18.918;2022-12-07T06:45:12;2.65;;;2.42;;
48124;SDS011;33908;47.436;18.918;2022-12-07T06:47:41;0.73;;;0.73;;
48124;SDS011;33908;47.436;18.918;2022-12-07T06:52:42;3.33;;;1.92;;
48124;SDS011;33908;47.436;18.918;2022-12-07T06:55:13;3.00;;;1.75;;
48124;SDS011;33908;47.436;18.918;2022-12-07T06:57:42;1.00;;;1.00;;
48124;SDS011;33908;47.436;18.918;2022-12-07T07:00:16;1.77;;;1.45;;
48124;SDS011;33908;47.436;18.918;2022-12-07T07:02:49;2.40;;;2.30;;
48124;SDS011;33908;47.436;18.918;2022-12-07T07:05:18;1.80;;;1.70;;
48124;SDS011;33908;47.436;18.918;2022-12-07T07:07:49;3.58;;;2.42;;
48124;SDS011;33908;47.436;18.918;2022-12-07T07:10:40;3.28;;;2.90;;
48124;SDS011;33908;47.436;18.918;2022-12-07T07:13:08;5.15;;;4.15;;
48124;SDS011;33908;47.436;18.918;2022-12-07T07:15:40;3.15;;;1.95;;
48124;SDS011;33908;47.436;18.918;2022-12-07T07:18:11;1.30;;;1.20;;
48124;SDS011;33908;47.436;18.918;2022-12-07T07:20:40;1.55;;;1.45;;
48124;SDS011;33908;47.436;18.918;2022-12-07T07:23:08;5.45;;;4.62;;
48124;SDS011;33908;47.436;18.918;2022-12-07T07:25:39;0.77;;;0.77;;
48124;SDS011;33908;47.436;18.918;2022-12-07T07:28:08;5.22;;;2.28;;
48124;SDS011;33908;47.436;18.918;2022-12-07T07:33:16;0.62;;;0.62;;
48124;SDS011;33908;47.436;18.918;2022-12-07T07:35:44;1.58;;;1.23;;
48124;SDS011;33908;47.436;18.918;2022-12-07T07:38:16;2.10;;;1.90;;
48124;SDS011;33908;47.436;18.918;2022-12-07T07:40:45;1.08;;;0.98;;
48124;SDS011;33908;47.436;18.918;2022-12-07T07:43:13;1.80;;;1.70;;
48124;SDS011;33908;47.436;18.918;2022-12-07T07:45:41;0.40;;;0.40;;
48124;SDS011;33908;47.436;18.918;2022-12-07T07:48:11;0.88;;;0.88;;
48124;SDS011;33908;47.436;18.918;2022-12-07T07:50:40;1.67;;;1.42;;
48124;SDS011;33908;47.436;18.918;2022-12-07T07:53:10;0.52;;;0.52;;
48124;SDS011;33908;47.436;18.918;2022-12-07T07:55:38;1.95;;;1.85;;
48124;SDS011;33908;47.436;18.918;2022-12-07T07:58:06;0.88;;;0.88;;
48124;SDS011;33908;47.436;18.918;2022-12-07T08:03:15;1.77;;;1.37;;
48124;SDS011;33908;47.436;18.918;2022-12-07T08:05:44;1.25;;;0.88;;
48124;SDS011;33908;47.436;18.918;2022-12-07T08:08:13;0.55;;;0.55;;
48124;SDS011;33908;47.436;18.918;2022-12-07T08:10:41;0.82;;;0.82;;
48124;SDS011;33908;47.436;18.918;2022-12-07T08:13:09;0.25;;;0.25;;
48124;SDS011;33908;47.436;18.918;2022-12-07T08:15:46;0.55;;;0.55;;
48124;SDS011;33908;47.436;18.918;2022-12-07T08:18:15;1.52;;;1.35;;
48124;SDS011;33908;47.436;18.918;2022-12-07T08:20:47;0.90;;;0.90;;
48124;SDS011;33908;47.436;18.918;2022-12-07T08:23:21;2.30;;;2.08;;
48124;SDS011;33908;47.436;18.918;2022-12-07T08:26:13;0.60;;;0.60;;
48124;SDS011;33908;47.436;18.918;2022-12-07T08:28:42;0.25;;;0.25;;
48124;SDS011;33908;47.436;18.918;2022-12-07T08:31:17;0.52;;;0.52;;
48124;SDS011;33908;47.436;18.918;2022-12-07T08:33:49;3.47;;;1.17;;
48124;SDS011;33908;47.436;18.918;2022-12-07T08:36:18;1.15;;;1.15;;
48124;SDS011;33908;47.436;18.918;2022-12-07T08:38:46;0.32;;;0.32;;
48124;SDS011;33908;47.436;18.918;2022-12-07T08:41:34;1.35;;;1.25;;
48124;SDS011;33908;47.436;18.918;2022-12-07T08:44:05;1.63;;;1.57;;
48124;SDS011;33908;47.436;18.918;2022-12-07T08:46:38;0.25;;;0.25;;
48124;SDS011;33908;47.436;18.918;2022-12-07T08:49:11;1.02;;;0.98;;
48124;SDS011;33908;47.436;18.918;2022-12-07T08:51:44;0.95;;;0.95;;
48124;SDS011;33908;47.436;18.918;2022-12-07T08:54:14;0.60;;;0.57;;
48124;SDS011;33908;47.436;18.918;2022-12-07T08:56:44;1.02;;;1.00;;
48124;SDS011;33908;47.436;18.918;2022-12-07T08:59:17;2.92;;;1.85;;
48124;SDS011;33908;47.436;18.918;2022-12-07T09:01:47;1.83;;;1.73;;
48124;SDS011;33908;47.436;18.918;2022-12-07T09:04:22;0.20;;;0.20;;
48124;SDS011;33908;47.436;18.918;2022-12-07T09:06:51;1.55;;;1.45;;
48124;SDS011;33908;47.436;18.918;2022-12-07T09:09:29;1.10;;;1.10;;
48124;SDS011;33908;47.436;18.918;2022-12-07T09:11:57;0.25;;;0.25;;
48124;SDS011;33908;47.436;18.918;2022-12-07T09:14:25;1.90;;;1.80;;
48124;SDS011;33908;47.436;18.918;2022-12-07T09:17:07;3.50;;;2.60;;
48124;SDS011;33908;47.436;18.918;2022-12-07T09:19:37;0.73;;;0.73;;
48124;SDS011;33908;47.436;18.918;2022-12-07T09:22:08;1.80;;;1.70;;
48124;SDS011;33908;47.436;18.918;2022-12-07T09:24:36;2.40;;;1.92;;
48124;SDS011;33908;47.436;18.918;2022-12-07T09:27:05;0.82;;;0.82;;
48124;SDS011;33908;47.436;18.918;2022-12-07T09:29:34;3.40;;;1.37;;
48124;SDS011;33908;47.436;18.918;2022-12-07T09:32:02;0.60;;;0.60;;
48124;SDS011;33908;47.436;18.918;2022-12-07T09:34:38;1.45;;;1.33;;
48124;SDS011;33908;47.436;18.918;2022-12-07T09:37:08;0.45;;;0.45;;
48124;SDS011;33908;47.436;18.918;2022-12-07T09:39:38;0.55;;;0.55;;
48124;SDS011;33908;47.436;18.918;2022-12-07T09:42:37;3.12;;;2.92;;
48124;SDS011;33908;47.436;18.918;2022-12-07T09:45:05;1.75;;;1.65;;
48124;SDS011;33908;47.436;18.918;2022-12-07T09:47:37;1.55;;;1.00;;
48124;SDS011;33908;47.436;18.918;2022-12-07T09:50:10;0.62;;;0.55;;
48124;SDS011;33908;47.436;18.918;2022-12-07T09:52:45;1.10;;;1.00;;
48124;SDS011;33908;47.436;18.918;2022-12-07T09:55:19;1.35;;;1.25;;
48124;SDS011;33908;47.436;18.918;2022-12-07T09:57:51;2.30;;;0.98;;
48124;SDS011;33908;47.436;18.918;2022-12-07T10:00:22;2.30;;;0.80;;
48124;SDS011;33908;47.436;18.918;2022-12-07T10:02:55;0.15;;;0.15;;
48124;SDS011;33908;47.436;18.918;2022-12-07T10:05:34;1.12;;;1.05;;
48124;SDS011;33908;47.436;18.918;2022-12-07T10:08:05;1.23;;;1.08;;
48124;SDS011;33908;47.436;18.918;2022-12-07T10:10:46;2.58;;;2.40;;
48124;SDS011;33908;47.436;18.918;2022-12-07T10:13:20;2.35;;;1.87;;
48124;SDS011;33908;47.436;18.918;2022-12-07T10:18:33;2.37;;;0.47;;
48124;SDS011;33908;47.436;18.918;2022-12-07T10:23:40;1.25;;;1.17;;
48124;SDS011;33908;47.436;18.918;2022-12-07T10:28:59;0.28;;;0.28;;
48124;SDS011;33908;47.436;18.918;2022-12-07T10:34:00;0.80;;;0.80;;
48124;SDS011;33908;47.436;18.918;2022-12-07T10:41:32;0.68;;;0.68;;
48124;SDS011;33908;47.436;18.918;2022-12-07T10:44:02;0.82;;;0.82;;
48124;SDS011;33908;47.436;18.918;2022-12-07T10:46:38;0.40;;;0.40;;
48124;SDS011;33908;47.436;18.918;2022-12-07T10:49:38;0.80;;;0.80;;
48124;SDS011;33908;47.436;18.918;2022-12-07T10:52:13;2.03;;;1.83;;
48124;SDS011;33908;47.436;18.918;2022-12-07T11:03:03;1.27;;;1.23;;
48124;SDS011;33908;47.436;18.918;2022-12-07T11:05:41;1.00;;;1.00;;
48124;SDS011;33908;47.436;18.918;2022-12-07T11:10:52;1.55;;;1.45;;
48124;SDS011;33908;47.436;18.918;2022-12-07T11:13:37;0.10;;;0.10;;
48124;SDS011;33908;47.436;18.918;2022-12-07T11:16:19;0.95;;;0.93;;
48124;SDS011;33908;47.436;18.918;2022-12-07T11:25:15;0.93;;;0.85;;
48124;SDS011;33908;47.436;18.918;2022-12-07T11:47:11;0.70;;;0.70;;
48124;SDS011;33908;47.436;18.918;2022-12-07T11:49:47;6.30;;;1.00;;
48124;SDS011;33908;47.436;18.918;2022-12-07T11:52:58;0.20;;;0.20;;
48124;SDS011;33908;47.436;18.918;2022-12-07T12:04:07;0.15;;;0.15;;
48124;SDS011;33908;47.436;18.918;2022-12-07T12:06:33;0.32;;;0.32;;
48124;SDS011;33908;47.436;18.918;2022-12-07T12:20:46;0.65;;;0.65;;
48124;SDS011;33908;47.436;18.918;2022-12-07T12:23:59;0.85;;;0.75;;
48124;SDS011;33908;47.436;18.918;2022-12-07T12:26:33;1.40;;;1.30;;
48124;SDS011;33908;47.436;18.918;2022-12-07T12:29:13;0.22;;;0.22;;
48124;SDS011;33908;47.436;18.918;2022-12-07T12:42:48;0.30;;;0.30;;
48124;SDS011;33908;47.436;18.918;2022-12-07T12:45:18;0.75;;;0.75;;
48124;SDS011;33908;47.436;18.918;2022-12-07T12:48:04;0.37;;;0.10;;
48124;SDS011;33908;47.436;18.918;2022-12-07T12:51:35;1.98;;;1.20;;
48124;SDS011;33908;47.436;18.918;2022-12-07T12:54:18;0.80;;;0.80;;
48124;SDS011;33908;47.436;18.918;2022-12-07T12:59:36;1.35;;;0.62;;
48124;SDS011;33908;47.436;18.918;2022-12-07T13:04:54;0.32;;;0.32;;
48124;SDS011;33908;47.436;18.918;2022-12-07T13:10:30;0.35;;;0.35;;
48124;SDS011;33908;47.436;18.918;2022-12-07T13:18:44;1.17;;;0.80;;
48124;SDS011;33908;47.436;18.918;2022-12-07T13:29:03;1.33;;;1.23;;
48124;SDS011;33908;47.436;18.918;2022-12-07T13:37:02;0.60;;;0.50;;
48124;SDS011;33908;47.436;18.918;2022-12-07T13:39:48;1.98;;;1.17;;
48124;SDS011;33908;47.436;18.918;2022-12-07T13:42:31;0.62;;;0.62;;
48124;SDS011;33908;47.436;18.918;2022-12-07T13:45:26;0.43;;;0.43;;
48124;SDS011;33908;47.436;18.918;2022-12-07T13:48:24;0.00;;;0.00;;
48124;SDS011;33908;47.436;18.918;2022-12-07T13:50:59;0.15;;;0.15;;
48124;SDS011;33908;47.436;18.918;2022-12-07T13:56:03;0.10;;;0.10;;
48124;SDS011;33908;47.436;18.918;2022-12-07T13:58:36;0.30;;;0.30;;
48124;SDS011;33908;47.436;18.918;2022-12-07T14:01:04;0.35;;;0.35;;
48124;SDS011;33908;47.436;18.918;2022-12-07T14:03:35;0.00;;;0.00;;
48124;SDS011;33908;47.436;18.918;2022-12-07T14:08:48;0.93;;;0.93;;
48124;SDS011;33908;47.436;18.918;2022-12-07T14:11:35;0.22;;;0.22;;
48124;SDS011;33908;47.436;18.918;2022-12-07T14:17:17;0.93;;;0.93;;
48124;SDS011;33908;47.436;18.918;2022-12-07T14:19:59;0.13;;;0.13;;
48124;SDS011;33908;47.436;18.918;2022-12-07T14:22:36;0.65;;;0.65;;
48124;SDS011;33908;47.436;18.918;2022-12-07T14:27:58;0.52;;;0.52;;
48124;SDS011;33908;47.436;18.918;2022-12-07T14:30:31;0.40;;;0.32;;
48124;SDS011;33908;47.436;18.918;2022-12-07T14:33:03;0.73;;;0.73;;
48124;SDS011;33908;47.436;18.918;2022-12-07T14:35:40;0.00;;;0.00;;
48124;SDS011;33908;47.436;18.918;2022-12-07T14:38:14;0.40;;;0.40;;
48124;SDS011;33908;47.436;18.918;2022-12-07T14:40:42;0.50;;;0.50;;
48124;SDS011;33908;47.436;18.918;2022-12-07T14:43:12;0.85;;;0.85;;
48124;SDS011;33908;47.436;18.918;2022-12-07T14:45:40;1.30;;;1.27;;
48124;SDS011;33908;47.436;18.918;2022-12-07T14:48:13;2.28;;;1.55;;
48124;SDS011;33908;47.436;18.918;2022-12-07T14:51:03;1.20;;;1.20;;
48124;SDS011;33908;47.436;18.918;2022-12-07T14:53:52;2.70;;;2.05;;
48124;SDS011;33908;47.436;18.918;2022-12-07T14:56:25;0.95;;;0.95;;
48124;SDS011;33908;47.436;18.918;2022-12-07T14:59:01;1.02;;;0.93;;
48124;SDS011;33908;47.436;18.918;2022-12-07T15:01:28;1.52;;;1.42;;
48124;SDS011;33908;47.436;18.918;2022-12-07T15:03:56;0.95;;;0.88;;
48124;SDS011;33908;47.436;18.918;2022-12-07T15:06:24;1.23;;;1.17;;
48124;SDS011;33908;47.436;18.918;2022-12-07T15:09:03;1.65;;;1.05;;
48124;SDS011;33908;47.436;18.918;2022-12-07T15:11:43;2.58;;;2.37;;
48124;SDS011;33908;47.436;18.918;2022-12-07T15:14:14;2.25;;;1.05;;
48124;SDS011;33908;47.436;18.918;2022-12-07T15:16:43;0.98;;;0.98;;
48124;SDS011;33908;47.436;18.918;2022-12-07T15:19:35;0.70;;;0.70;;
48124;SDS011;33908;47.436;18.918;2022-12-07T15:22:11;1.02;;;1.02;;
48124;SDS011;33908;47.436;18.918;2022-12-07T15:24:44;0.60;;;0.60;;
48124;SDS011;33908;47.436;18.918;2022-12-07T15:27:14;0.77;;;0.75;;
48124;SDS011;33908;47.436;18.918;2022-12-07T15:29:44;1.42;;;0.95;;
48124;SDS011;33908;47.436;18.918;2022-12-07T15:32:20;0.17;;;0.17;;
48124;SDS011;33908;47.436;18.918;2022-12-07T15:34:52;2.35;;;0.62;;
48124;SDS011;33908;47.436;18.918;2022-12-07T15:37:28;0.43;;;0.08;;
48124;SDS011;33908;47.436;18.918;2022-12-07T15:40:01;1.85;;;1.62;;
48124;SDS011;33908;47.436;18.918;2022-12-07T15:42:35;1.42;;;1.40;;
48124;SDS011;33908;47.436;18.918;2022-12-07T15:45:09;1.92;;;1.77;;
48124;SDS011;33908;47.436;18.918;2022-12-07T15:47:45;2.47;;;2.28;;
48124;SDS011;33908;47.436;18.918;2022-12-07T15:50:35;2.83;;;1.95;;
48124;SDS011;33908;47.436;18.918;2022-12-07T15:53:08;1.17;;;1.17;;
48124;SDS011;33908;47.436;18.918;2022-12-07T15:58:12;1.52;;;1.52;;
48124;SDS011;33908;47.436;18.918;2022-12-07T16:00:44;1.60;;;1.50;;
48124;SDS011;33908;47.436;18.918;2022-12-07T16:03:18;1.73;;;1.62;;
48124;SDS011;33908;47.436;18.918;2022-12-07T16:08:33;0.30;;;0.30;;
48124;SDS011;33908;47.436;18.918;2022-12-07T16:11:10;4.75;;;3.60;;
48124;SDS011;33908;47.436;18.918;2022-12-07T16:13:40;2.80;;;2.30;;
48124;SDS011;33908;47.436;18.918;2022-12-07T16:16:12;3.97;;;2.17;;
48124;SDS011;33908;47.436;18.918;2022-12-07T16:18:50;0.93;;;0.93;;
48124;SDS011;33908;47.436;18.918;2022-12-07T16:21:25;4.95;;;3.08;;
48124;SDS011;33908;47.436;18.918;2022-12-07T16:24:06;0.75;;;0.75;;
48124;SDS011;33908;47.436;18.918;2022-12-07T16:26:36;2.20;;;1.95;;
48124;SDS011;33908;47.436;18.918;2022-12-07T16:29:03;0.80;;;0.60;;
48124;SDS011;33908;47.436;18.918;2022-12-07T16:31:32;1.48;;;1.40;;
48124;SDS011;33908;47.436;18.918;2022-12-07T16:34:01;4.00;;;2.83;;
48124;SDS011;33908;47.436;18.918;2022-12-07T16:36:32;2.95;;;2.75;;
48124;SDS011;33908;47.436;18.918;2022-12-07T16:39:24;2.92;;;2.72;;
48124;SDS011;33908;47.436;18.918;2022-12-07T16:44:28;1.65;;;1.55;;
48124;SDS011;33908;47.436;18.918;2022-12-07T16:46:56;6.47;;;3.40;;
48124;SDS011;33908;47.436;18.918;2022-12-07T16:49:27;1.37;;;1.37;;
48124;SDS011;33908;47.436;18.918;2022-12-07T16:52:00;6.03;;;3.17;;
48124;SDS011;33908;47.436;18.918;2022-12-07T16:54:49;4.03;;;3.70;;
48124;SDS011;33908;47.436;18.918;2022-12-07T17:00:00;1.85;;;1.60;;
48124;SDS011;33908;47.436;18.918;2022-12-07T17:02:34;9.43;;;6.25;;
48124;SDS011;33908;47.436;18.918;2022-12-07T17:05:06;7.78;;;2.85;;
48124;SDS011;33908;47.436;18.918;2022-12-07T17:07:37;3.05;;;2.80;;
48124;SDS011;33908;47.436;18.918;2022-12-07T17:10:08;5.60;;;4.47;;
48124;SDS011;33908;47.436;18.918;2022-12-07T17:12:37;2.90;;;1.73;;
48124;SDS011;33908;47.436;18.918;2022-12-07T17:15:11;2.95;;;2.70;;
48124;SDS011;33908;47.436;18.918;2022-12-07T17:17:57;4.70;;;2.17;;
48124;SDS011;33908;47.436;18.918;2022-12-07T17:20:36;1.73;;;1.70;;
48124;SDS011;33908;47.436;18.918;2022-12-07T17:23:12;1.95;;;1.85;;
48124;SDS011;33908;47.436;18.918;2022-12-07T17:25:41;4.37;;;3.50;;
48124;SDS011;33908;47.436;18.918;2022-12-07T17:30:44;3.85;;;3.55;;
48124;SDS011;33908;47.436;18.918;2022-12-07T17:33:17;7.75;;;7.00;;
48124;SDS011;33908;47.436;18.918;2022-12-07T17:35:54;2.37;;;2.28;;
48124;SDS011;33908;47.436;18.918;2022-12-07T17:38:24;6.93;;;6.12;;
48124;SDS011;33908;47.436;18.918;2022-12-07T17:41:08;4.87;;;4.50;;
48124;SDS011;33908;47.436;18.918;2022-12-07T17:44:02;1.80;;;1.67;;
48124;SDS011;33908;47.436;18.918;2022-12-07T17:46:39;2.35;;;2.15;;
48124;SDS011;33908;47.436;18.918;2022-12-07T17:51:43;5.68;;;4.40;;
48124;SDS011;33908;47.436;18.918;2022-12-07T17:54:19;2.20;;;2.10;;
48124;SDS011;33908;47.436;18.918;2022-12-07T17:56:49;3.12;;;2.95;;
48124;SDS011;33908;47.436;18.918;2022-12-07T18:02:02;2.10;;;2.00;;
48124;SDS011;33908;47.436;18.918;2022-12-07T18:04:32;3.47;;;2.97;;
48124;SDS011;33908;47.436;18.918;2022-12-07T18:07:02;5.50;;;4.57;;
48124;SDS011;33908;47.436;18.918;2022-12-07T18:09:36;2.70;;;2.28;;
48124;SDS011;33908;47.436;18.918;2022-12-07T18:12:10;2.47;;;1.85;;
48124;SDS011;33908;47.436;18.918;2022-12-07T18:17:30;4.12;;;3.83;;
48124;SDS011;33908;47.436;18.918;2022-12-07T18:20:00;3.22;;;3.03;;
48124;SDS011;33908;47.436;18.918;2022-12-07T18:22:32;1.83;;;1.73;;
48124;SDS011;33908;47.436;18.918;2022-12-07T18:25:07;2.25;;;2.05;;
48124;SDS011;33908;47.436;18.918;2022-12-07T18:27:41;0.65;;;0.65;;
48124;SDS011;33908;47.436;18.918;2022-12-07T18:30:19;12.15;;;9.73;;
48124;SDS011;33908;47.436;18.918;2022-12-07T18:32:53;32.60;;;14.60;;